Time;durP1;ratioP1;P1;durP2;ratioP2;P2;SDS_P1;SDS_P2;PMS_P1;PMS_P2;Temp;Humidity;BMP_temperature;BMP_pressure;BME280_temperature;BME280_humidity;BME280_pressure;Samples;Min_cycle;Max_cycle;Signal;HPM_P1;HPM_P2
2021/05/11 00:00:15;;;;;;;28.55;12.75;;;;;;;8.43;78.13;94818.21;1809438;79;21056;-52
2021/05/11 00:02:43;;;;;;;25.97;12.50;;;;;;;8.42;78.14;94818.66;1822054;78;21079;-50
2021/05/11 00:05:12;;;;;;;22.10;11.90;;;;;;;8.38;78.15;94821.48;1809400;79;21075;-52
2021/05/11 00:07:39;;;;;;;42.78;18.55;;;;;;;8.34;78.31;94820.03;1820678;78;22107;-50
2021/05/11 00:10:09;;;;;;;32.33;14.78;;;;;;;8.30;78.57;94817.98;1806363;79;21171;-51
2021/05/11 00:12:37;;;;;;;27.62;10.72;;;;;;;8.28;78.68;94826.63;1822201;78;21214;-50
2021/05/11 00:15:07;;;;;;;27.32;13.30;;;;;;;8.22;78.76;94826.23;1806426;79;21063;-50
2021/05/11 00:17:34;;;;;;;24.10;12.33;;;;;;;8.12;78.87;94823.11;1822357;78;21457;-50
2021/05/11 00:20:04;;;;;;;23.18;12.82;;;;;;;8.04;79.14;94821.14;1806474;79;21356;-49
2021/05/11 00:22:32;;;;;;;24.82;12.23;;;;;;;8.00;79.37;94824.58;1822178;78;21083;-50
2021/05/11 00:25:01;;;;;;;19.40;11.65;;;;;;;8.04;79.55;94819.02;1806514;79;21096;-51
2021/05/11 00:27:29;;;;;;;19.57;11.25;;;;;;;8.07;79.26;94816.78;1822241;78;21155;-51
2021/05/11 00:29:58;;;;;;;21.57;11.08;;;;;;;8.03;79.20;94821.59;1806512;79;21112;-51
2021/05/11 00:32:26;;;;;;;29.25;12.88;;;;;;;8.03;79.05;94823.71;1822238;78;21167;-51
2021/05/11 00:34:55;;;;;;;18.02;9.58;;;;;;;8.03;79.01;94829.19;1822160;78;21536;-51
2021/05/11 00:37:23;;;;;;;16.20;8.38;;;;;;;7.99;79.02;94824.98;1822206;78;21076;-52
2021/05/11 00:39:52;;;;;;;17.80;9.33;;;;;;;7.91;79.16;94824.39;1803846;79;21068;-50
2021/05/11 00:42:19;;;;;;;22.52;12.33;;;;;;;7.83;79.24;94825.77;1822197;78;21107;-50
2021/05/11 00:44:48;;;;;;;24.98;11.28;;;;;;;7.75;79.49;94815.41;1806509;79;21360;-51
2021/05/11 00:47:16;;;;;;;31.17;12.95;;;;;;;7.73;79.69;94818.56;1822244;78;21865;-51
2021/05/11 00:49:44;;;;;;;19.48;11.12;;;;;;;7.74;79.59;94822.84;1806561;79;21199;-51
2021/05/11 00:52:12;;;;;;;21.15;11.10;;;;;;;7.75;79.62;94821.67;1822327;78;21492;-50
2021/05/11 00:54:42;;;;;;;20.60;11.05;;;;;;;7.77;79.55;94826.11;1806593;79;21116;-50
2021/05/11 00:57:10;;;;;;;18.90;11.93;;;;;;;7.82;79.43;94816.02;1793207;78;21191;-50
2021/05/11 00:59:39;;;;;;;23.80;12.37;;;;;;;7.84;79.32;94819.09;1822344;78;21131;-51
2021/05/11 01:02:08;;;;;;;22.62;13.62;;;;;;;7.86;79.29;94811.21;1822299;78;21103;-50
2021/05/11 01:04:37;;;;;;;24.07;11.30;;;;;;;7.83;79.11;94812.08;1806620;79;21166;-50
2021/05/11 01:07:05;;;;;;;18.12;9.98;;;;;;;7.77;79.20;94811.05;1822130;78;21056;-51
2021/05/11 01:09:33;;;;;;;16.37;9.40;;;;;;;7.73;79.14;94810.34;1822367;78;21203;-51
2021/05/11 01:12:03;;;;;;;21.85;11.65;;;;;;;7.70;78.93;94808.47;1806465;79;21080;-51
2021/05/11 01:14:31;;;;;;;17.00;10.40;;;;;;;7.65;79.05;94811.72;1822112;78;21562;-55
2021/05/11 01:17:01;;;;;;;17.77;10.35;;;;;;;7.66;79.07;94815.23;1806397;79;21088;-49
2021/05/11 01:25:14;;;;;;;23.77;11.15;;;;;;;7.53;79.07;94818.47;1822052;78;21187;-50
2021/05/11 01:43:56;;;;;;;24.65;10.25;;;;;;;7.33;79.51;94817.75;1822127;78;21096;-51
2021/05/11 01:46:37;;;;;;;28.83;9.28;;;;;;;7.36;79.71;94827.23;1797231;78;21059;-53
2021/05/11 01:51:54;;;;;;;14.70;9.08;;;;;;;7.40;79.35;94818.95;1806364;79;21524;-50
2021/05/11 02:23:50;;;;;;;27.75;10.20;;;;;;;6.86;80.19;94817.76;1815582;79;21528;-50
2021/05/11 02:26:18;;;;;;;34.70;10.35;;;;;;;6.77;80.38;94811.31;1806379;79;21108;-50
2021/05/11 02:28:46;;;;;;;26.93;10.30;;;;;;;6.74;80.42;94811.55;1822072;78;21195;-50
2021/05/11 02:31:14;;;;;;;29.92;11.55;;;;;;;6.68;80.40;94809.75;1806363;79;21132;-49
2021/05/11 02:33:42;;;;;;;33.18;12.18;;;;;;;6.61;80.50;94812.59;1822033;78;21051;-50
2021/05/11 02:36:10;;;;;;;19.17;10.88;;;;;;;6.58;80.87;94809.34;1806333;79;21063;-49
2021/05/11 02:38:38;;;;;;;30.88;11.90;;;;;;;6.59;80.84;94810.88;1822085;78;21151;-51
2021/05/11 02:41:06;;;;;;;22.65;11.10;;;;;;;6.52;80.71;94806.93;1806330;79;21200;-50
2021/05/11 02:43:38;;;;;;;18.70;11.60;;;;;;;6.51;80.92;94806.76;1822013;78;21075;-49
2021/05/11 02:46:05;;;;;;;19.02;11.60;;;;;;;6.50;81.05;94809.31;1822049;78;21047;-53
2021/05/11 02:48:34;;;;;;;32.55;12.30;;;;;;;6.52;81.09;94805.56;1822094;78;21543;-51
2021/05/11 02:51:02;;;;;;;19.80;11.45;;;;;;;6.55;81.20;94812.92;1806480;79;21060;-51
2021/05/11 02:53:30;;;;;;;74.85;15.30;;;;;;;6.58;81.00;94814.81;1822315;78;21196;-50
2021/05/11 02:55:58;;;;;;;43.10;12.30;;;;;;;6.55;80.93;94811.55;1822404;78;21111;-50
2021/05/11 02:58:27;;;;;;;22.17;12.10;;;;;;;6.55;80.94;94807.45;1806569;79;21047;-51
2021/05/11 03:00:55;;;;;;;29.67;13.90;;;;;;;6.55;81.14;94809.58;1822054;78;21071;-53
2021/05/11 03:03:23;;;;;;;27.80;13.35;;;;;;;6.58;81.20;94813.44;1806369;79;21067;-53
2021/05/11 03:05:51;;;;;;;24.32;13.83;;;;;;;6.59;81.25;94809.52;1822111;78;23551;-53
2021/05/11 03:08:19;;;;;;;25.23;12.07;;;;;;;6.63;81.21;94815.09;1821989;78;21099;-53
2021/05/11 03:10:48;;;;;;;23.98;9.98;;;;;;;6.67;81.09;94817.16;1806340;79;21151;-53
2021/05/11 03:13:16;;;;;;;23.55;11.08;;;;;;;6.75;80.62;94815.06;1822056;78;21064;-52
2021/05/11 03:15:44;;;;;;;24.50;13.03;;;;;;;6.77;80.29;94816.78;1822129;78;21075;-52
2021/05/11 03:18:12;;;;;;;26.02;12.70;;;;;;;6.82;80.34;94814.91;1806295;79;21145;-52
2021/05/11 03:20:41;;;;;;;24.52;13.40;;;;;;;6.84;80.29;94819.36;1822030;78;21095;-51
2021/05/11 03:23:09;;;;;;;46.98;14.68;;;;;;;6.82;80.33;94813.55;1806326;79;21103;-51
2021/05/11 03:25:37;;;;;;;41.15;14.53;;;;;;;6.82;80.42;94817.06;1822009;78;21175;-50
2021/05/11 03:28:05;;;;;;;30.40;13.83;;;;;;;6.83;80.08;94826.02;1806324;79;21156;-51
2021/05/11 03:30:33;;;;;;;26.35;15.35;;;;;;;6.81;80.08;94830.56;1822090;78;21285;-50
2021/05/11 03:33:01;;;;;;;33.23;14.07;;;;;;;6.81;80.31;94831.14;1806255;79;21128;-52
2021/05/11 03:35:29;;;;;;;32.85;13.80;;;;;;;6.86;80.22;94830.06;1822139;78;21540;-52
2021/05/11 03:37:57;;;;;;;36.83;16.42;;;;;;;6.88;79.82;94832.39;1792163;78;21177;-51
2021/05/11 03:40:26;;;;;;;33.35;13.38;;;;;;;6.88;79.71;94836.48;1822038;78;21528;-52
2021/05/11 03:43:01;;;;;;;53.48;16.60;;;;;;;6.90;79.74;94834.10;1822081;78;21356;-51
2021/05/11 03:45:30;;;;;;;40.63;13.85;;;;;;;6.94;79.80;94837.53;1821086;78;21123;-52
2021/05/11 03:48:01;;;;;;;52.10;18.77;;;;;;;7.03;79.80;94832.28;1873682;76;22739;-51
2021/05/11 03:50:36;;;;;;;41.20;16.25;;;;;;;7.05;79.92;94834.00;1873610;76;22619;-52
2021/05/11 03:53:22;;;;;;;41.08;16.12;;;;;;;7.05;80.03;94832.63;1841600;77;21124;-52
2021/05/11 03:55:57;;;;;;;29.37;13.32;;;;;;;7.19;80.20;94825.64;1873698;76;22590;-52
2021/05/11 03:58:33;;;;;;;29.27;12.50;;;;;;;7.25;79.87;94829.44;1890125;76;22698;-52
2021/05/11 04:01:08;;;;;;;29.75;14.47;;;;;;;7.27;79.84;94831.16;1890064;75;23178;-52
2021/05/11 04:03:50;;;;;;;21.82;12.60;;;;;;;7.32;79.82;94837.48;1872957;76;22645;-52
2021/05/11 04:06:25;;;;;;;33.63;14.15;;;;;;;7.37;79.79;94828.77;1888614;76;22258;-51
2021/05/11 04:16:11;;;;;;;24.85;12.00;;;;;;;7.45;79.87;94817.85;1873694;76;22635;-52
2021/05/11 04:17:01;;;;;;;22.35;10.98;;;;;;;7.56;79.87;94817.61;1890079;75;22706;-52
2021/05/11 04:19:48;;;;;;;22.87;10.65;;;;;;;7.58;79.82;94821.48;1860925;77;20997;-52
2021/05/11 04:22:24;;;;;;;25.27;11.75;;;;;;;7.67;79.83;94817.53;1873668;75;22680;-51
2021/05/11 04:25:00;;;;;;;28.40;14.70;;;;;;;7.69;79.91;94826.09;1873637;76;22626;-51
2021/05/11 04:27:45;;;;;;;77.60;30.30;;;;;;;7.70;80.03;94829.00;1841556;77;21129;-53
2021/05/11 04:30:27;;;;;;;69.25;26.75;;;;;;;7.87;79.96;94823.70;1872916;75;22711;-52
2021/05/11 04:33:08;;;;;;;76.17;32.38;;;;;;;8.02;79.72;94819.44;1890069;76;22788;-51
2021/05/11 04:35:50;;;;;;;75.47;35.35;;;;;;;8.18;79.50;94815.34;1872949;75;22723;-51
2021/05/11 04:38:38;;;;;;;71.67;32.08;;;;;;;8.27;79.18;94825.09;1841577;78;21145;-51
2021/05/11 04:41:13;;;;;;;54.45;28.05;;;;;;;8.49;78.81;94811.61;1829504;76;27787;-53
2021/05/11 04:43:49;;;;;;;49.73;23.35;;;;;;;8.72;78.26;94814.90;1890101;76;23177;-52
2021/05/11 04:49:16;;;;;;;52.83;25.25;;;;;;;9.03;77.48;94810.52;1890090;75;22680;-52
2021/05/11 04:51:52;;;;;;;49.38;21.60;;;;;;;9.17;77.21;94804.00;1890079;75;22643;-51
2021/05/11 04:54:33;;;;;;;48.25;22.65;;;;;;;9.36;76.64;94805.00;1872945;76;23249;-52
2021/05/11 04:57:09;;;;;;;44.30;20.72;;;;;;;9.52;76.19;94801.58;1873720;75;21803;-51
2021/05/11 04:59:44;;;;;;;37.85;18.75;;;;;;;9.65;75.41;94800.95;1873669;75;22618;-52
2021/05/11 05:02:22;;;;;;;38.83;18.70;;;;;;;9.74;74.68;94804.42;1873666;75;22739;-53
2021/05/11 05:05:09;;;;;;;38.63;17.62;;;;;;;9.78;74.30;94797.61;1841626;78;21474;-53
2021/05/11 05:07:44;;;;;;;37.25;16.00;;;;;;;9.94;74.17;94793.96;1888553;76;21999;-53
2021/05/11 05:10:20;;;;;;;27.15;11.83;;;;;;;10.05;73.68;94786.19;1873611;76;22643;-52
2021/05/11 05:13:02;;;;;;;25.15;12.82;;;;;;;10.17;72.93;94797.77;1890082;75;22661;-52
2021/05/11 05:15:37;;;;;;;73.02;20.40;;;;;;;10.22;72.62;94795.23;1888673;76;22639;-52
2021/05/11 05:18:26;;;;;;;29.27;13.60;;;;;;;10.27;72.09;94793.89;1774904;80;21123;-52
2021/05/11 05:21:06;;;;;;;42.30;15.00;;;;;;;10.45;71.57;94781.69;1872726;75;22746;-56
2021/05/11 05:23:49;;;;;;;28.07;12.33;;;;;;;10.54;71.43;94779.03;1873072;75;22232;-54
2021/05/11 05:26:26;;;;;;;31.23;11.90;;;;;;;10.65;70.92;94778.03;1887206;75;22651;-54
2021/05/11 05:29:07;;;;;;;24.77;11.05;;;;;;;10.74;70.55;94769.23;1881831;75;22766;-54
2021/05/11 05:31:53;;;;;;;19.70;9.95;;;;;;;10.77;70.20;94780.13;1853845;77;22123;-55
2021/05/11 05:34:28;;;;;;;22.42;11.22;;;;;;;10.90;69.96;94773.97;1872626;75;22905;-56
2021/05/11 05:37:04;;;;;;;18.05;8.38;;;;;;;11.04;69.64;94778.97;1858920;75;22805;-56
2021/05/11 05:39:55;;;;;;;29.95;11.43;;;;;;;11.15;69.50;94779.95;1777211;79;21179;-59
2021/05/11 05:42:28;;;;;;;30.30;11.20;;;;;;;11.38;69.11;94771.95;1862637;75;22732;-60
2021/05/11 05:45:05;;;;;;;30.85;10.25;;;;;;;11.55;68.99;94774.64;1862869;75;22684;-53
2021/05/11 05:47:50;;;;;;;21.20;9.08;;;;;;;11.70;68.79;94779.05;1833809;76;21181;-55
2021/05/11 05:50:29;;;;;;;23.83;10.93;;;;;;;11.94;67.81;94782.80;1852895;75;28739;-53
2021/05/11 05:53:21;;;;;;;19.12;9.65;;;;;;;12.15;67.03;94776.42;1865578;75;22772;-54
2021/05/11 05:56:12;;;;;;;18.32;9.78;;;;;;;12.31;66.42;94770.64;1862197;75;22509;-58
2021/05/11 05:58:54;;;;;;;22.58;10.48;;;;;;;12.41;65.93;94766.05;1868538;75;22702;-52
2021/05/11 06:01:41;;;;;;;24.70;10.88;;;;;;;12.49;65.72;94770.03;1857878;75;21122;-56
2021/05/11 06:04:38;;;;;;;22.95;10.60;;;;;;;12.69;65.50;94762.10;1861968;75;22693;-56
2021/05/11 06:07:15;;;;;;;19.70;8.98;;;;;;;12.80;64.89;94756.87;1834834;76;21592;-60
2021/05/11 06:09:53;;;;;;;19.20;10.82;;;;;;;12.91;64.77;94759.31;1870055;75;22765;-56
2021/05/11 06:12:39;;;;;;;26.87;9.88;;;;;;;12.99;64.48;94747.38;1868363;76;21841;-56
2021/05/11 06:18:17;;;;;;;18.35;10.38;;;;;;;13.35;63.64;94752.83;1855645;75;22737;-57
2021/05/11 06:20:52;;;;;;;22.02;8.15;;;;;;;13.52;63.51;94745.12;1855216;76;22675;-55
2021/05/11 06:23:28;;;;;;;11.12;7.28;;;;;;;13.72;63.51;94748.12;1858376;75;22803;-53
2021/05/11 06:26:04;;;;;;;12.95;5.45;;;;;;;13.95;63.28;94748.00;1873940;75;22698;-54
2021/05/11 06:28:45;;;;;;;8.38;5.25;;;;;;;14.14;62.46;94746.06;1801627;77;22395;-55
2021/05/11 06:31:33;;;;;;;11.15;5.92;;;;;;;14.32;61.31;94740.45;1867791;75;24253;-56
2021/05/11 06:34:32;;;;;;;13.28;5.70;;;;;;;14.45;61.00;94741.73;1834440;76;21444;-57
2021/05/11 06:37:08;;;;;;;12.47;6.20;;;;;;;14.76;60.72;94737.97;1860011;75;23040;-57
2021/05/11 06:39:47;;;;;;;17.82;6.28;;;;;;;14.94;60.16;94746.13;1876584;75;22732;-51
2021/05/11 06:42:31;;;;;;;10.78;5.20;;;;;;;15.06;60.14;94748.49;1830556;77;21213;-55
2021/05/11 06:48:10;;;;;;;12.55;6.05;;;;;;;15.42;58.79;94732.31;1867911;75;22624;-53
2021/05/11 06:53:49;;;;;;;12.05;5.62;;;;;;;15.78;57.74;94729.13;1881106;75;22634;-53
2021/05/11 06:56:30;;;;;;;9.58;5.17;;;;;;;15.95;57.67;94737.70;1853727;75;22918;-56
2021/05/11 06:59:06;;;;;;;11.43;5.28;;;;;;;16.12;56.77;94732.52;1859149;76;22447;-57
2021/05/11 07:01:42;;;;;;;9.60;4.78;;;;;;;16.32;56.28;94733.94;1870294;75;22734;-58
2021/05/11 07:04:27;;;;;;;7.08;4.55;;;;;;;16.45;55.46;94729.63;1814477;77;21128;-57
2021/05/11 07:07:23;;;;;;;8.58;4.90;;;;;;;16.73;54.63;94725.17;1859710;75;22828;-55
2021/05/11 07:10:21;;;;;;;7.50;4.35;;;;;;;16.93;53.87;94726.55;1860124;75;38295;-57
2021/05/11 07:13:12;;;;;;;10.25;4.60;;;;;;;17.23;52.88;94723.72;1868377;75;22853;-55
2021/05/11 07:15:49;;;;;;;12.03;4.47;;;;;;;17.41;51.60;94717.86;1872426;75;22336;-58
2021/05/11 07:18:28;;;;;;;12.70;5.30;;;;;;;17.55;51.07;94710.03;1874476;75;22764;-58
2021/05/11 07:21:14;;;;;;;19.87;6.00;;;;;;;17.65;51.35;94721.74;1819947;76;21263;-50
2021/05/11 07:24:00;;;;;;;13.50;5.90;;;;;;;17.88;51.26;94705.34;1858946;75;22469;-56
2021/05/11 07:26:46;;;;;;;10.08;4.78;;;;;;;18.04;50.70;94709.63;1857977;76;22701;-58
2021/05/11 07:32:04;;;;;;;11.45;5.47;;;;;;;18.28;49.86;94701.73;1832524;76;21213;-55
2021/05/11 07:34:43;;;;;;;10.60;5.03;;;;;;;18.49;49.47;94694.11;1856548;75;22837;-53
2021/05/11 07:37:22;;;;;;;9.35;5.58;;;;;;;18.66;48.93;94693.55;1864694;76;22839;-52
2021/05/11 07:39:58;;;;;;;13.15;5.10;;;;;;;18.83;48.01;94689.45;1862655;75;22653;-56
2021/05/11 07:42:34;;;;;;;7.58;4.60;;;;;;;18.95;47.99;94679.22;1880949;74;22663;-54
2021/05/11 07:45:15;;;;;;;16.25;6.20;;;;;;;19.07;47.30;94684.97;1861889;75;22709;-61
2021/05/11 08:01:55;;;;;;;7.83;4.00;;;;;;;19.64;45.69;94671.38;1880068;74;22696;-57
2021/05/11 08:02:31;;;;;;;6.17;3.52;;;;;;;19.99;46.26;94673.64;1878210;75;22803;-56
2021/05/11 08:16:16;;;;;;;6.28;3.37;;;;;;;20.72;43.64;94656.31;1884616;75;21803;-58
2021/05/11 08:27:34;;;;;;;6.33;2.62;;;;;;;21.33;43.07;94647.62;1887625;75;22976;-55
2021/05/11 08:30:16;;;;;;;11.00;4.12;;;;;;;21.41;43.12;94639.55;1853500;76;22386;-54
2021/05/11 08:32:53;;;;;;;6.93;3.03;;;;;;;21.63;41.87;94633.06;1855976;76;27833;-54
2021/05/11 08:35:29;;;;;;;8.93;3.08;;;;;;;21.78;40.37;94637.63;1838885;76;21955;-53
2021/05/11 08:38:05;;;;;;;5.40;3.00;;;;;;;21.92;38.96;94632.29;1856015;76;28088;-54
2021/05/11 08:40:51;;;;;;;9.13;2.47;;;;;;;21.95;38.10;94631.23;1826454;78;21229;-57
2021/05/11 08:43:35;;;;;;;7.05;3.90;;;;;;;22.03;38.70;94623.13;1870021;75;22685;-56
2021/05/11 08:46:16;;;;;;;9.18;2.72;;;;;;;22.08;38.40;94627.29;1857035;75;22746;-55
2021/05/11 08:49:05;;;;;;;3.85;2.50;;;;;;;22.09;40.26;94621.05;1828259;77;21670;-56
2021/05/11 08:54:38;;;;;;;7.72;3.35;;;;;;;22.39;38.98;94609.92;1884240;75;22417;-57
2021/05/11 09:06:37;;;;;;;7.28;2.75;;;;;;;22.89;37.39;94594.64;1845094;76;22787;-53
2021/05/11 09:51:14;;;;;;;3.60;1.90;;;;;;;24.28;35.62;94562.38;1883520;75;23321;-55
2021/05/11 09:59:36;;;;;;;5.97;2.40;;;;;;;24.54;35.88;94558.19;1866217;74;22791;-56
2021/05/11 10:48:37;;;;;;;5.95;1.98;;;;;;;28.29;28.35;94521.91;1887435;76;22690;-56
2021/05/11 10:51:22;;;;;;;5.80;1.77;;;;;;;28.46;27.52;94527.77;1772820;79;22738;-53
2021/05/11 10:54:03;;;;;;;4.40;2.40;;;;;;;28.57;29.02;94525.92;1870795;76;22754;-55
2021/05/11 10:56:43;;;;;;;4.90;2.50;;;;;;;28.84;28.84;94526.98;1854825;75;22666;-55
2021/05/11 11:04:52;;;;;;;12.15;2.83;;;;;;;29.62;26.23;94529.75;1810464;77;24182;-59
2021/05/11 11:07:40;;;;;;;6.40;2.20;;;;;;;29.88;27.81;94527.02;1816937;78;21395;-55
2021/05/11 11:10:16;;;;;;;4.80;1.75;;;;;;;30.33;26.06;94525.99;1864798;75;22634;-54
2021/05/11 11:12:51;;;;;;;10.72;2.77;;;;;;;30.58;26.96;94518.95;1887103;75;22220;-52
2021/05/11 11:15:27;;;;;;;20.02;2.95;;;;;;;30.85;26.61;94523.30;1856975;75;22821;-54
2021/05/11 11:18:03;;;;;;;16.15;2.80;;;;;;;31.10;25.72;94511.91;1866208;75;22722;-58
2021/05/11 11:20:44;;;;;;;7.20;2.35;;;;;;;31.30;26.79;94522.09;1859493;75;27867;-53
2021/05/11 11:23:33;;;;;;;1.98;1.50;;;;;;;31.55;24.89;94521.27;1829185;76;21196;-58
2021/05/11 11:28:45;;;;;;;5.37;2.30;;;;;;;32.08;24.29;94509.85;1874806;75;23686;-57
2021/05/11 11:31:26;;;;;;;8.23;1.75;;;;;;;32.21;24.40;94511.64;1878031;75;22717;-56
2021/05/11 11:34:25;;;;;;;10.10;1.70;;;;;;;32.28;23.60;94508.59;1850739;76;21161;-54
2021/05/11 11:37:09;;;;;;;5.72;2.40;;;;;;;32.50;23.73;94510.27;1880364;74;22749;-54
2021/05/11 11:39:51;;;;;;;5.47;2.30;;;;;;;32.73;23.85;94504.92;1866508;75;22754;-54
2021/05/11 11:42:41;;;;;;;6.70;2.60;;;;;;;32.93;23.23;94506.46;1877319;74;22145;-55
2021/05/11 11:45:26;;;;;;;5.67;1.92;;;;;;;33.02;23.61;94505.70;1869278;75;22699;-56
2021/05/11 11:48:05;;;;;;;5.87;1.90;;;;;;;33.02;22.92;94496.48;1877843;75;22814;-54
2021/05/11 11:51:00;;;;;;;5.42;1.77;;;;;;;32.89;22.53;94501.86;1845610;77;21210;-57
2021/05/11 11:53:39;;;;;;;8.85;1.80;;;;;;;33.04;23.53;94488.06;1860995;75;22651;-55
2021/05/11 11:56:38;;;;;;;12.18;2.08;;;;;;;33.15;23.61;94490.98;1854399;75;22722;-55
2021/05/11 11:59:14;;;;;;;3.72;1.57;;;;;;;33.45;22.77;94489.67;1857064;75;22639;-57
2021/05/11 12:02:04;;;;;;;9.35;2.08;;;;;;;33.42;22.09;94490.13;1837672;76;21466;-54
2021/05/11 12:04:44;;;;;;;4.70;1.98;;;;;;;33.30;23.20;94488.58;1816286;77;23125;-58
2021/05/11 12:07:33;;;;;;;3.55;1.77;;;;;;;33.16;22.70;94493.22;1754366;79;22922;-54
2021/05/11 12:10:19;;;;;;;5.45;2.30;;;;;;;33.02;22.82;94485.73;1736646;80;21215;-54
2021/05/11 12:12:55;;;;;;;6.20;2.80;;;;;;;33.09;22.60;94485.58;1850280;75;27756;-52
2021/05/11 12:15:31;;;;;;;5.70;1.97;;;;;;;33.35;23.18;94484.66;1839919;76;28120;-53
2021/05/11 12:18:20;;;;;;;7.42;1.90;;;;;;;33.58;21.85;94478.45;1810481;77;21201;-54
2021/05/11 12:21:01;;;;;;;6.15;4.12;;;;;;;33.80;21.73;94471.48;1842813;75;21938;-59
2021/05/11 12:23:42;;;;;;;3.83;2.00;;;;;;;33.90;22.28;94470.78;1800998;75;27581;-53
2021/05/11 12:26:20;;;;;;;4.97;1.45;;;;;;;34.25;22.49;94470.47;1878450;75;22679;-57
2021/05/11 12:29:13;;;;;;;10.48;1.70;;;;;;;34.21;21.31;94469.44;1857259;76;21065;-54
2021/05/11 12:31:56;;;;;;;3.08;1.70;;;;;;;34.34;21.09;94471.08;1881322;75;21887;-57
2021/05/11 12:34:33;;;;;;;12.95;2.22;;;;;;;34.38;21.69;94477.77;1842494;75;20923;-54
2021/05/11 12:37:23;;;;;;;4.90;1.95;;;;;;;34.36;20.45;94467.63;1792274;77;21220;-53
2021/05/11 12:40:02;;;;;;;3.10;1.98;;;;;;;34.28;21.08;94467.06;1884902;76;22322;-57
2021/05/11 12:42:45;;;;;;;6.00;1.75;;;;;;;34.27;21.95;94459.18;1817331;76;22723;-55
2021/05/11 12:45:39;;;;;;;5.40;2.30;;;;;;;34.22;20.58;94460.27;1796204;78;21665;-53
2021/05/11 12:48:14;;;;;;;3.10;1.70;;;;;;;34.30;19.83;94457.95;1858902;75;22767;-57
2021/05/11 12:50:50;;;;;;;10.60;1.95;;;;;;;34.46;20.32;94454.77;1890387;74;22789;-56
2021/05/11 12:53:39;;;;;;;6.80;2.35;;;;;;;34.60;20.34;94458.59;1871336;75;21962;-53
2021/05/11 12:59:30;;;;;;;5.05;1.77;;;;;;;34.44;20.37;94454.64;1869847;75;22692;-57
2021/05/11 13:22:18;;;;;;;6.00;2.00;;;;;;;35.16;18.33;94430.16;1881309;75;22791;-56
2021/05/11 13:30:48;;;;;;;3.63;1.60;;;;;;;35.14;19.11;94428.56;1855057;75;27857;-57
2021/05/11 13:33:31;;;;;;;3.80;1.40;;;;;;;35.34;19.43;94414.16;1855751;75;27840;-54
2021/05/11 13:36:10;;;;;;;5.37;1.87;;;;;;;35.66;18.69;94421.28;1844344;75;27757;-56
2021/05/11 13:38:52;;;;;;;10.65;1.70;;;;;;;36.06;17.89;94419.48;1882809;75;22742;-57
2021/05/11 13:41:44;;;;;;;5.28;1.72;;;;;;;36.10;17.93;94425.48;1847799;77;21149;-55
2021/05/11 13:44:20;;;;;;;7.97;1.87;;;;;;;36.12;18.30;94414.14;1872849;76;23330;-55
2021/05/11 13:47:02;;;;;;;6.47;1.30;;;;;;;35.71;18.46;94407.94;1869932;75;22684;-56
2021/05/11 13:49:50;;;;;;;4.25;1.60;;;;;;;35.53;18.36;94405.34;1828893;77;21073;-54
2021/05/11 13:52:26;;;;;;;2.08;1.47;;;;;;;35.57;18.65;94409.22;1872690;75;22856;-55
2021/05/11 13:55:07;;;;;;;7.25;2.20;;;;;;;35.53;18.82;94408.20;1837988;75;27947;-56
2021/05/11 14:03:37;;;;;;;5.95;2.05;;;;;;;35.93;17.58;94397.85;1866640;76;22347;-60
2021/05/11 14:06:24;;;;;;;5.92;1.60;;;;;;;35.85;18.28;94398.13;1816480;76;21659;-58
2021/05/11 14:09:00;;;;;;;9.28;2.65;;;;;;;35.68;17.91;94398.50;1834049;76;27689;-59
2021/05/11 14:11:36;;;;;;;5.95;2.10;;;;;;;35.88;17.87;94399.74;1853433;76;22668;-61
2021/05/11 14:14:12;;;;;;;7.85;2.60;;;;;;;35.82;18.14;94397.92;1854899;76;28295;-57
2021/05/11 14:16:48;;;;;;;6.42;2.37;;;;;;;35.91;17.94;94392.77;1837930;75;27955;-55
2021/05/11 14:19:25;;;;;;;5.83;1.98;;;;;;;36.20;18.35;94391.69;1867662;75;27664;-53
2021/05/11 14:22:11;;;;;;;5.53;2.00;;;;;;;36.33;17.62;94392.48;1837231;77;21083;-60
2021/05/11 14:24:50;;;;;;;6.17;2.08;;;;;;;36.33;17.40;94383.88;1889605;75;22639;-57
2021/05/11 14:27:28;;;;;;;5.42;1.82;;;;;;;36.25;17.24;94387.71;1875233;75;22319;-58
2021/05/11 14:30:17;;;;;;;7.70;1.82;;;;;;;35.91;17.26;94379.88;1846023;77;21195;-59
2021/05/11 14:32:58;;;;;;;17.27;3.42;;;;;;;35.74;17.98;94383.78;1771712;79;23565;-58
2021/05/11 14:35:34;;;;;;;7.95;1.72;;;;;;;35.59;17.46;94376.41;1874395;76;22841;-64
2021/05/11 14:38:11;;;;;;;11.55;1.72;;;;;;;35.50;17.70;94374.43;1889131;74;22256;-64
2021/05/11 14:40:55;;;;;;;8.03;1.80;;;;;;;35.41;17.82;94374.55;1905145;75;23292;-62
2021/05/11 14:43:41;;;;;;;8.53;2.05;;;;;;;35.39;18.17;94374.42;1867294;76;21452;-61
2021/05/11 14:46:17;;;;;;;5.37;2.27;;;;;;;35.53;17.97;94370.33;1857126;76;28380;-54
2021/05/11 14:48:52;;;;;;;6.28;2.22;;;;;;;35.80;17.48;94364.12;1887243;75;23268;-56
2021/05/11 14:51:28;;;;;;;4.62;1.75;;;;;;;35.94;17.59;94362.87;1871816;75;22286;-57
2021/05/11 14:54:05;;;;;;;2.77;1.77;;;;;;;35.99;16.91;94363.16;1888391;75;22701;-58
2021/05/11 14:56:41;;;;;;;4.67;1.67;;;;;;;35.90;17.03;94362.63;1843421;76;22006;-55
2021/05/11 14:59:26;;;;;;;6.75;1.72;;;;;;;35.79;16.87;94367.67;1799377;77;21190;-58
2021/05/11 15:02:02;;;;;;;3.70;1.72;;;;;;;35.91;17.15;94359.06;1860722;75;22675;-60
2021/05/11 15:04:37;;;;;;;2.30;1.55;;;;;;;35.57;16.74;94368.41;1872360;75;22763;-54
2021/05/11 15:07:13;;;;;;;6.85;1.98;;;;;;;35.39;17.33;94360.84;1855786;75;22661;-53
2021/05/11 15:09:48;;;;;;;5.17;1.37;;;;;;;35.47;17.27;94359.91;1870362;76;22701;-55
2021/05/11 15:12:25;;;;;;;1.50;1.40;;;;;;;35.42;17.56;94366.75;1871113;75;22735;-54
2021/05/11 15:15:00;;;;;;;5.07;1.80;;;;;;;35.13;17.29;94356.31;1833609;76;27752;-55
2021/05/11 15:20:13;;;;;;;6.28;1.80;;;;;;;34.91;17.43;94346.98;1872309;75;22664;-55
2021/05/11 15:22:52;;;;;;;6.53;2.08;;;;;;;34.80;18.11;94354.16;1879019;75;23090;-55
2021/05/11 15:25:27;;;;;;;8.75;2.55;;;;;;;34.77;17.39;94351.12;1862688;76;23139;-54
2021/05/11 15:28:04;;;;;;;8.93;2.27;;;;;;;34.83;17.03;94351.50;1873051;76;22627;-55
2021/05/11 15:30:50;;;;;;;9.15;2.35;;;;;;;34.69;17.42;94352.00;1755592;81;21554;-55
2021/05/11 15:33:26;;;;;;;6.87;2.37;;;;;;;34.22;17.98;94350.95;1889999;75;21872;-55
2021/05/11 15:36:03;;;;;;;9.53;2.47;;;;;;;33.82;18.46;94333.16;1868341;76;22658;-56
2021/05/11 15:38:49;;;;;;;6.83;2.08;;;;;;;33.48;18.38;94345.05;1831889;77;21170;-55
2021/05/11 15:41:24;;;;;;;4.45;2.10;;;;;;;32.87;19.23;94347.77;1792600;78;27836;-55
2021/05/11 15:44:00;;;;;;;8.98;2.20;;;;;;;32.36;19.23;94338.29;1872958;75;22619;-55
2021/05/11 15:46:35;;;;;;;5.83;2.35;;;;;;;31.69;19.87;94335.29;1873184;75;22756;-54
2021/05/11 15:49:11;;;;;;;9.88;2.65;;;;;;;31.20;20.42;94333.62;1872265;75;23267;-54
2021/05/11 15:51:47;;;;;;;6.53;3.60;;;;;;;30.73;20.91;94337.63;1827927;76;27791;-55
2021/05/11 15:54:23;;;;;;;8.53;3.05;;;;;;;30.30;21.17;94332.00;1889890;75;22614;-55
2021/05/11 15:56:58;;;;;;;7.42;2.40;;;;;;;29.91;21.88;94327.32;1873209;75;22626;-54
2021/05/11 15:59:34;;;;;;;7.20;2.30;;;;;;;29.54;22.23;94325.55;1776628;79;22720;-54
2021/05/11 16:02:10;;;;;;;5.12;2.10;;;;;;;29.09;23.01;94332.97;1873441;76;22699;-54
2021/05/11 16:04:52;;;;;;;4.62;2.62;;;;;;;28.52;23.42;94325.12;1872620;75;22673;-54
2021/05/11 16:07:27;;;;;;;7.72;3.60;;;;;;;27.98;23.83;94328.08;1845976;76;22714;-54
2021/05/11 16:10:08;;;;;;;9.43;2.92;;;;;;;27.56;24.29;94321.30;1873068;75;22703;-54
2021/05/11 16:12:56;;;;;;;4.12;2.50;;;;;;;27.29;24.82;94323.78;1841612;78;21045;-54
2021/05/11 16:15:31;;;;;;;12.85;3.95;;;;;;;27.16;25.26;94322.55;1873343;76;22778;-54
2021/05/11 16:18:08;;;;;;;7.58;3.42;;;;;;;27.12;25.37;94321.42;1873509;76;22670;-54
2021/05/11 16:20:54;;;;;;;5.10;2.35;;;;;;;26.97;25.48;94327.80;1841179;78;21049;-53
2021/05/11 16:23:29;;;;;;;4.95;2.10;;;;;;;26.63;26.09;94322.41;1873557;75;22659;-53
2021/05/11 16:26:05;;;;;;;5.83;2.70;;;;;;;26.29;26.54;94324.07;1873368;76;22647;-54
2021/05/11 16:28:40;;;;;;;3.75;2.40;;;;;;;26.09;26.91;94319.98;1889556;75;22739;-56
2021/05/11 16:31:17;;;;;;;6.37;2.50;;;;;;;25.92;27.16;94327.41;1889359;75;23265;-55
2021/05/11 16:33:53;;;;;;;7.33;2.95;;;;;;;25.61;27.49;94325.07;1873714;76;27849;-53